This is the latest recevied weather packets stored in our database for station/object EA2DXT-10. If no packets are shown the sender has not sent any weather packets the latest 10 day(s).
| Time | Temp. | Humidity | Pressure | Rain* | Wind** | Luminosity | Snow |
|---|---|---|---|---|---|---|---|
| 1777588672 | 25° C | 47% | 952.4 hPa | - | - | - | - |
| 1777587772 | 25° C | 46% | 952.4 hPa | - | - | - | - |
| 1777586872 | 25° C | 46% | 952.4 hPa | - | - | - | - |
| 1777585072 | 25° C | 46% | 952.5 hPa | - | - | - | - |
| 1777583271 | 25.56° C | 46% | 952.5 hPa | - | - | - | - |
| 1777581471 | 25.56° C | 46% | 952.5 hPa | - | - | - | - |
| 1777580571 | 25.56° C | 46% | 952.2 hPa | - | - | - | - |
| 1777578771 | 25.56° C | 46% | 951.9 hPa | - | - | - | - |
| 1777577871 | 25.56° C | 46% | 951.7 hPa | - | - | - | - |
| 1777576970 | 25.56° C | 46% | 951.7 hPa | - | - | - | - |
| 1777576070 | 25.56° C | 46% | 951.5 hPa | - | - | - | - |
| 1777575170 | 25.56° C | 46% | 951.3 hPa | - | - | - | - |
| 1777573370 | 25.56° C | 46% | 951.1 hPa | - | - | - | - |
| 1777572469 | 25.56° C | 46% | 951 hPa | - | - | - | - |
| 1777570669 | 26.11° C | 46% | 950.7 hPa | - | - | - | - |
| 1777568869 | 25.56° C | 46% | 950.4 hPa | - | - | - | - |
| 1777567068 | 24.44° C | 50% | 950.4 hPa | - | - | - | - |
| 1777565268 | 23.89° C | 51% | 950 hPa | - | - | - | - |
| 1777564368 | 23.33° C | 53% | 950 hPa | - | - | - | - |
| 1777563468 | 23.89° C | 52% | 949.8 hPa | - | - | - | - |
| 1777499475 | 12.22° C | 83% | 945.2 hPa | - | - | - | - |
| 1777498593 | 13.33° C | 82% | 945.3 hPa | - | - | - | - |
| 1777498574 | 13.33° C | 82% | 945.2 hPa | - | - | - | - |
| 1777498554 | 13.33° C | 82% | 945.3 hPa | - | - | - | - |
| 1777497654 | 10° C | 82% | 934.9 hPa | - | - | - | - |
* Rain since midnight (hover to see other rain measurements)
** Current wind speed in m/s (hover to see current wind gust speed)